Terminal Aerodrome Forecast
Issued by NWS

Home | Current Version | Previous Version | Text Only | Print | Product List | Glossary On
Versions: 1 2 3 4 5 6 7 8 9 10 11 12 13
360
FTUS45 KABQ 281459 AAA
TAFTCC
TAF AMD
KTCC 281459Z 2815/2912 20008KT 6SM RA BR BKN020 OVC040
     FM281630 10010KT P6SM SCT100
     FM282200 06010KT P6SM -SHRA BKN045 OVC090
     FM290300 03011KT 4SM RA BR OVC015=

USA.gov is the U.S. government's official web portal to all federal, state and local government web resources and services.